地図

経路データ

SID SEASON NUMBER BASIN SUBBASIN NAME ISO_TIME NATURE LAT LON WMO_WIND WMO_PRES WMO_AGENCY TRACK_TYPE DIST2LAND LANDFALL IFLAG USA_AGENCY USA_ATCF_ID USA_LAT USA_LON USA_RECORD USA_STATUS USA_WIND USA_PRES USA_SSHS USA_R34_NE USA_R34_SE USA_R34_SW USA_R34_NW USA_R50_NE USA_R50_SE USA_R50_SW USA_R50_NW USA_R64_NE USA_R64_SE USA_R64_SW USA_R64_NW USA_POCI USA_ROCI USA_RMW USA_EYE TOKYO_LAT TOKYO_LON TOKYO_GRADE TOKYO_WIND TOKYO_PRES TOKYO_R50_DIR TOKYO_R50_LONG TOKYO_R50_SHORT TOKYO_R30_DIR TOKYO_R30_LONG TOKYO_R30_SHORT TOKYO_LAND CMA_LAT CMA_LON CMA_CAT CMA_WIND CMA_PRES HKO_LAT HKO_LON HKO_CAT HKO_WIND HKO_PRES NEWDELHI_LAT NEWDELHI_LON NEWDELHI_GRADE NEWDELHI_WIND NEWDELHI_PRES NEWDELHI_CI NEWDELHI_DP NEWDELHI_POCI REUNION_LAT REUNION_LON REUNION_TYPE REUNION_WIND REUNION_PRES REUNION_TNUM REUNION_CI REUNION_RMW REUNION_R34_NE REUNION_R34_SE REUNION_R34_SW REUNION_R34_NW REUNION_R50_NE REUNION_R50_SE REUNION_R50_SW REUNION_R50_NW REUNION_R64_NE REUNION_R64_SE REUNION_R64_SW REUNION_R64_NW BOM_LAT BOM_LON BOM_TYPE BOM_WIND BOM_PRES BOM_TNUM BOM_CI BOM_RMW BOM_R34_NE BOM_R34_SE BOM_R34_SW BOM_R34_NW BOM_R50_NE BOM_R50_SE BOM_R50_SW BOM_R50_NW BOM_R64_NE BOM_R64_SE BOM_R64_SW BOM_R64_NW BOM_ROCI BOM_POCI BOM_EYE BOM_POS_METHOD BOM_PRES_METHOD NADI_LAT NADI_LON NADI_CAT NADI_WIND NADI_PRES WELLINGTON_LAT WELLINGTON_LON WELLINGTON_WIND WELLINGTON_PRES DS824_LAT DS824_LON DS824_STAGE DS824_WIND DS824_PRES TD9636_LAT TD9636_LON TD9636_STAGE TD9636_WIND TD9636_PRES TD9635_LAT TD9635_LON TD9635_WIND TD9635_PRES TD9635_ROCI NEUMANN_LAT NEUMANN_LON NEUMANN_CLASS NEUMANN_WIND NEUMANN_PRES MLC_LAT MLC_LON MLC_CLASS MLC_WIND MLC_PRES USA_GUST BOM_GUST BOM_GUST_PER REUNION_GUST REUNION_GUST_PER USA_SEAHGT USA_SEARAD_NE USA_SEARAD_SE USA_SEARAD_SW USA_SEARAD_NW STORM_SPEED STORM_DIR
1936272N17119 1936 53 WP MM NOT_NAMED 1936-09-27 22:00:00 NR 17.0000 118.800 main 132 132 __________O___ -1 17.0000 118.800 2 4 333
1936272N17119 1936 53 WP MM NOT_NAMED 1936-09-28 00:00:00 NR 17.1275 118.731 main 147 147 __________P___ -1 17.1275 118.731 2 4 333
1936272N17119 1936 53 WP MM NOT_NAMED 1936-09-28 03:00:00 NR 17.3148 118.629 main 169 169 __________P___ -1 17.3148 118.629 2 4 332
1936272N17119 1936 53 WP MM NOT_NAMED 1936-09-28 06:00:00 NR 17.4915 118.528 main 191 190 __________P___ -1 17.4915 118.528 2 4 331
1936272N17119 1936 53 WP MM NOT_NAMED 1936-09-28 09:00:00 NR 17.6515 118.431 main 201 201 __________P___ -1 17.6515 118.431 2 4 329
1936272N17119 1936 53 WP MM NOT_NAMED 1936-09-28 10:00:00 NR 17.7000 118.400 main 201 201 __________O___ -1 17.7000 118.400 2 3 327
1936272N17119 1936 53 WP MM NOT_NAMED 1936-09-28 12:00:00 NR 17.7885 118.338 main 213 213 __________P___ -1 17.7885 118.338 2 3 322
1936272N17119 1936 53 WP MM NOT_NAMED 1936-09-28 15:00:00 NR 17.8963 118.239 main 224 224 __________P___ -1 17.8963 118.239 2 3 311
1936272N17119 1936 53 WP MM NOT_NAMED 1936-09-28 18:00:00 NR 17.9689 118.120 main 237 237 __________P___ -1 17.9689 118.120 2 3 292
1936272N17119 1936 53 WP MM NOT_NAMED 1936-09-28 21:00:00 NR 17.9999 117.963 main 247 247 __________P___ -1 17.9999 117.963 2 3 278
1936272N17119 1936 53 WP MM NOT_NAMED 1936-09-28 22:00:00 NR 18.0000 117.900 main 258 258 __________O___ -1 18.0000 117.900 2 4 266
1936272N17119 1936 53 WP MM NOT_NAMED 1936-09-29 00:00:00 NR 17.9869 117.753 main 268 278 __________P___ -1 17.9869 117.753 2 5 260
1936272N17119 1936 53 WP MM NOT_NAMED 1936-09-29 03:00:00 NR 17.9295 117.496 main 298 298 __________P___ -1 17.9295 117.496 2 5 254
1936272N17119 1936 53 WP MM NOT_NAMED 1936-09-29 06:00:00 NR 17.8405 117.207 main 323 323 __________P___ -1 17.8405 117.207 2 6 251
1936272N17119 1936 53 WP MM NOT_NAMED 1936-09-29 09:00:00 NR 17.7357 116.902 main 345 345 __________P___ -1 17.7357 116.902 2 6 250
1936272N17119 1936 53 WP MM NOT_NAMED 1936-09-29 10:00:00 NR 17.7000 116.800 main 355 355 __________O___ -1 17.7000 116.800 2 6 251
1936272N17119 1936 53 WP MM NOT_NAMED 1936-09-29 12:00:00 NR 17.6365 116.595 main 370 370 __________P___ -1 17.6365 116.595 2 6 251
1936272N17119 1936 53 WP MM NOT_NAMED 1936-09-29 15:00:00 NR 17.5348 116.281 main 395 395 __________P___ -1 17.5348 116.281 2 6 251
1936272N17119 1936 53 WP MM NOT_NAMED 1936-09-29 18:00:00 NR 17.4310 115.974 main 422 422 __________P___ -1 17.4310 115.974 2 6 250
1936272N17119 1936 53 WP MM NOT_NAMED 1936-09-29 21:00:00 NR 17.3312 115.688 main 450 450 __________P___ -1 17.3312 115.688 2 6 250
1936272N17119 1936 53 WP MM NOT_NAMED 1936-09-29 22:00:00 NR 17.3000 115.600 main 460 460 __________O___ -1 17.3000 115.600 2 5 249
1936272N17119 1936 53 WP MM NOT_NAMED 1936-09-30 00:00:00 NR 17.2441 115.449 main 477 477 __________P___ -1 17.2441 115.449 2 4 248
1936272N17119 1936 53 WP MM NOT_NAMED 1936-09-30 03:00:00 NR 17.1667 115.248 main 498 495 __________P___ -1 17.1667 115.248 2 4 248
1936272N17119 1936 53 WP MM NOT_NAMED 1936-09-30 06:00:00 NR 17.0942 115.061 main 505 497 __________P___ -1 17.0942 115.061 2 4 248
1936272N17119 1936 53 WP MM NOT_NAMED 1936-09-30 09:00:00 NR 17.0237 114.869 main 504 495 __________P___ -1 17.0237 114.869 2 4 249
1936272N17119 1936 53 WP MM NOT_NAMED 1936-09-30 10:00:00 NR 17.0000 114.800 main 495 487 __________O___ -1 17.0000 114.800 2 4 251
1936272N17119 1936 53 WP MM NOT_NAMED 1936-09-30 12:00:00 NR 16.9519 114.654 main 487 464 __________P___ -1 16.9519 114.654 2 5 252
1936272N17119 1936 53 WP MM NOT_NAMED 1936-09-30 15:00:00 NR 16.8780 114.414 main 464 451 __________P___ -1 16.8780 114.414 2 5 253
1936272N17119 1936 53 WP MM NOT_NAMED 1936-09-30 18:00:00 NR 16.8024 114.157 main 451 429 __________P___ -1 16.8024 114.157 2 5 253
1936272N17119 1936 53 WP MM NOT_NAMED 1936-09-30 21:00:00 NR 16.7257 113.890 main 429 421 __________P___ -1 16.7257 113.890 2 5 253
1936272N17119 1936 53 WP MM NOT_NAMED 1936-09-30 22:00:00 NR 16.7000 113.800 main 421 __________O___ -1 16.7000 113.800 2 5 253

デジタル台風データ・検索

IBTrACS Databaseについて

本データベースは、米国NOAAが公開する1842年以降の世界の熱帯低気圧のベストトラックデータアーカイブInternational Best Track Archive for Climate Stewardship (IBTrACS)を、ウェブで閲覧しやすい形式に変換したものです。

最終更新日:2021-12-08